createdAt,value
2018-03-20T00:01:10.114Z,-0.50
2018-03-20T00:03:39.400Z,-0.60
2018-03-20T00:06:08.645Z,-0.70
2018-03-20T00:08:38.705Z,-0.80
2018-03-20T00:11:08.192Z,-0.80
2018-03-20T00:13:37.550Z,-0.90
2018-03-20T00:16:06.805Z,-0.90
2018-03-20T00:18:36.899Z,-1.10
2018-03-20T00:21:06.184Z,-1.10
2018-03-20T00:23:35.487Z,-1.10
2018-03-20T00:26:05.602Z,-1.30
2018-03-20T00:28:35.650Z,-1.40
2018-03-20T00:31:04.964Z,-1.40
2018-03-20T00:33:34.224Z,-1.40
2018-03-20T00:36:03.527Z,-1.40
2018-03-20T00:38:32.786Z,-1.40
2018-03-20T00:41:02.839Z,-1.50
2018-03-20T00:43:32.115Z,-1.50
2018-03-20T00:46:01.371Z,-1.60
2018-03-20T00:48:30.627Z,-1.60
2018-03-20T00:50:59.879Z,-1.50
2018-03-20T00:53:29.164Z,-1.60
2018-03-20T00:55:59.238Z,-1.70
2018-03-20T00:58:28.552Z,-1.70
2018-03-20T01:00:57.873Z,-1.70
2018-03-20T01:03:27.172Z,-1.80
2018-03-20T01:05:56.487Z,-1.90
2018-03-20T01:08:25.761Z,-1.90
2018-03-20T01:10:55.075Z,-2.00
2018-03-20T01:13:24.443Z,-2.00
2018-03-20T01:15:53.755Z,-2.00
2018-03-20T01:18:23.090Z,-2.10
2018-03-20T01:20:52.394Z,-2.10
2018-03-20T01:23:21.847Z,-2.20
2018-03-20T01:25:51.940Z,-2.30
2018-03-20T01:28:21.197Z,-2.30
2018-03-20T01:30:51.362Z,-2.30
2018-03-20T01:33:20.667Z,-2.40
2018-03-20T01:35:49.986Z,-2.40
2018-03-20T01:38:19.332Z,-2.40
2018-03-20T01:40:48.595Z,-2.40
2018-03-20T01:43:18.702Z,-2.50
2018-03-20T01:45:47.971Z,-2.50
2018-03-20T01:48:17.281Z,-2.50
2018-03-20T01:50:46.565Z,-2.50
2018-03-20T01:53:19.876Z,-2.50
2018-03-20T01:55:49.951Z,-2.60
2018-03-20T01:58:24.089Z,-2.60
2018-03-20T02:00:53.397Z,-2.60
2018-03-20T02:03:22.720Z,-2.60
2018-03-20T02:05:52.348Z,-2.70
2018-03-20T02:08:22.426Z,-2.80
2018-03-20T02:10:51.770Z,-2.80
2018-03-20T02:13:21.061Z,-2.90
2018-03-20T02:15:50.386Z,-3.00
2018-03-20T02:18:19.826Z,-3.10
2018-03-20T02:20:49.142Z,-3.10
2018-03-20T02:23:18.588Z,-3.10
2018-03-20T02:25:47.845Z,-3.20
2018-03-20T02:28:17.128Z,-3.10
2018-03-20T02:30:46.412Z,-3.00
2018-03-20T02:33:15.735Z,-3.10
2018-03-20T02:35:45.033Z,-3.20
2018-03-20T02:38:14.317Z,-3.40
2018-03-20T02:40:43.586Z,-3.60
2018-03-20T02:43:13.686Z,-3.80
2018-03-20T02:45:42.967Z,-3.80
2018-03-20T02:48:12.277Z,-3.80
2018-03-20T02:50:41.555Z,-3.80
2018-03-20T02:53:10.801Z,-3.80
2018-03-20T02:55:40.106Z,-3.90
2018-03-20T02:58:09.391Z,-3.90
2018-03-20T03:00:39.417Z,-3.80
2018-03-20T03:03:09.444Z,-3.70
2018-03-20T03:05:38.763Z,-3.70
2018-03-20T03:08:08.004Z,-3.70
2018-03-20T03:10:37.293Z,-3.70
2018-03-20T03:13:06.582Z,-3.70
2018-03-20T03:15:35.814Z,-3.70
2018-03-20T03:18:05.860Z,-3.60
2018-03-20T03:20:35.133Z,-3.70
2018-03-20T03:23:04.582Z,-3.50
2018-03-20T03:25:34.622Z,-3.60
2018-03-20T03:28:03.909Z,-3.60
2018-03-20T03:30:33.172Z,-3.50
2018-03-20T03:33:02.533Z,-3.60
2018-03-20T03:35:34.810Z,-3.50
2018-03-20T03:38:04.078Z,-3.60
2018-03-20T03:40:33.368Z,-3.60
2018-03-20T03:43:02.657Z,-3.60
2018-03-20T03:45:31.910Z,-3.70
2018-03-20T03:48:01.210Z,-3.70
2018-03-20T03:50:31.185Z,-3.90
2018-03-20T03:53:00.446Z,-4.00
2018-03-20T03:55:29.755Z,-4.00
2018-03-20T03:57:59.054Z,-4.10
2018-03-20T04:00:29.126Z,-4.10
2018-03-20T04:02:58.347Z,-4.10
2018-03-20T04:05:27.689Z,-4.00
2018-03-20T04:07:56.914Z,-4.00
2018-03-20T04:10:26.210Z,-4.10
2018-03-20T04:12:55.431Z,-4.10
2018-03-20T04:15:24.843Z,-4.10
2018-03-20T04:17:54.091Z,-4.10
2018-03-20T04:20:23.379Z,-4.20
2018-03-20T04:22:52.695Z,-4.20
2018-03-20T04:25:21.944Z,-4.20
2018-03-20T04:27:51.250Z,-4.20
2018-03-20T04:30:21.335Z,-4.30
2018-03-20T04:32:50.642Z,-4.30
2018-03-20T04:35:19.913Z,-4.30
2018-03-20T04:37:49.171Z,-4.30
2018-03-20T04:40:18.481Z,-4.40
2018-03-20T04:42:47.680Z,-4.40
2018-03-20T04:45:16.903Z,-4.40
2018-03-20T04:47:46.127Z,-4.50
2018-03-20T04:50:15.376Z,-4.50
2018-03-20T04:52:44.741Z,-4.50
2018-03-20T04:55:13.989Z,-4.50
2018-03-20T04:57:44.048Z,-4.60
2018-03-20T05:00:13.238Z,-4.60
2018-03-20T05:02:43.229Z,-4.70
2018-03-20T05:05:13.303Z,-4.70
2018-03-20T05:07:42.552Z,-4.70
2018-03-20T05:10:11.878Z,-4.80
2018-03-20T05:12:41.126Z,-4.90
2018-03-20T05:15:11.331Z,-4.90
2018-03-20T05:17:40.586Z,-4.90
2018-03-20T05:20:22.305Z,-5.00
2018-03-20T05:26:03.040Z,-5.00
2018-03-20T05:28:32.302Z,-5.00
2018-03-20T05:31:02.373Z,-4.90
2018-03-20T05:33:31.632Z,-4.90
2018-03-20T05:36:00.911Z,-4.90
2018-03-20T05:38:30.207Z,-4.90
2018-03-20T05:40:59.494Z,-4.80
2018-03-20T05:43:29.576Z,-5.00
2018-03-20T05:45:58.886Z,-5.00
2018-03-20T05:48:43.927Z,-5.10
2018-03-20T05:51:18.938Z,-5.10
2018-03-20T05:53:48.393Z,-5.10
2018-03-20T05:56:18.702Z,-4.90
2018-03-20T05:58:48.152Z,-4.90
2018-03-20T06:01:18.551Z,-4.80
2018-03-20T06:03:48.366Z,-4.70
2018-03-20T06:06:18.558Z,-4.70
2018-03-20T06:08:48.594Z,-4.70
2018-03-20T06:11:18.029Z,-4.60
2018-03-20T06:13:47.509Z,-4.50
2018-03-20T06:16:16.864Z,-4.30
2018-03-20T06:18:47.130Z,-4.20
2018-03-20T06:21:16.731Z,-4.20
2018-03-20T06:23:46.272Z,-4.10
2018-03-20T06:26:15.642Z,-4.10
2018-03-20T06:28:44.946Z,-4.10
2018-03-20T06:31:14.247Z,-4.00
2018-03-20T06:33:43.521Z,-4.00
2018-03-20T06:36:13.569Z,-4.00
2018-03-20T06:38:43.842Z,-3.90
2018-03-20T06:41:13.225Z,-3.90
2018-03-20T06:43:42.753Z,-3.80
2018-03-20T06:46:12.088Z,-3.70
2018-03-20T06:48:41.463Z,-3.60
2018-03-20T06:51:11.529Z,-3.40
2018-03-20T06:53:40.870Z,-3.40
2018-03-20T06:56:10.199Z,-3.40
2018-03-20T06:58:39.529Z,-3.30
2018-03-20T07:01:09.382Z,-3.10
2018-03-20T07:03:39.361Z,-3.00
2018-03-20T07:06:08.652Z,-3.00
2018-03-20T07:08:38.071Z,-2.90
2018-03-20T07:11:07.316Z,-2.80
2018-03-20T07:13:37.371Z,-2.50
2018-03-20T07:16:06.679Z,-2.60
2018-03-20T07:21:06.398Z,-2.20
2018-03-20T07:23:35.835Z,-2.30
2018-03-20T07:26:05.060Z,-2.10
2018-03-20T07:28:34.268Z,-2.00
2018-03-20T07:31:04.253Z,-1.80
2018-03-20T07:33:33.576Z,-1.90
2018-03-20T07:36:02.854Z,-1.70
2018-03-20T07:38:32.127Z,-1.70
2018-03-20T07:41:02.096Z,-1.40
2018-03-20T07:43:31.349Z,-1.50
2018-03-20T07:46:00.644Z,-1.30
2018-03-20T07:48:30.000Z,-1.20
2018-03-20T07:50:59.181Z,-0.90
2018-03-20T07:53:28.602Z,-0.80
2018-03-20T07:55:57.823Z,-0.60
2018-03-20T07:58:27.331Z,-0.50
2018-03-20T08:00:56.595Z,-0.50
2018-03-20T08:03:25.937Z,-0.40
2018-03-20T08:05:55.252Z,-0.30
2018-03-20T08:08:24.486Z,0.00
2018-03-20T08:10:53.983Z,0.20
2018-03-20T08:13:23.279Z,0.40
2018-03-20T08:15:53.237Z,0.50
2018-03-20T08:18:22.659Z,0.80
2018-03-20T08:20:51.920Z,1.30
2018-03-20T08:23:21.961Z,2.20
2018-03-20T08:25:51.298Z,2.20
2018-03-20T08:28:20.558Z,2.70
2018-03-20T08:30:49.780Z,3.00
2018-03-20T08:33:19.073Z,3.20
2018-03-20T08:35:48.367Z,3.40
2018-03-20T08:38:18.885Z,3.80
2018-03-20T08:40:48.184Z,3.80
2018-03-20T08:43:17.524Z,3.80
2018-03-20T08:45:46.763Z,3.70
2018-03-20T08:48:16.151Z,3.60
2018-03-20T08:50:45.402Z,3.60
2018-03-20T08:53:15.497Z,3.60
2018-03-20T08:55:44.722Z,3.60
2018-03-20T08:58:13.923Z,3.50
2018-03-20T09:00:43.183Z,3.40
2018-03-20T09:03:12.460Z,3.40
2018-03-20T09:05:41.721Z,3.30
2018-03-20T09:08:11.071Z,3.20
2018-03-20T09:10:40.381Z,3.00
2018-03-20T09:13:09.640Z,2.80
2018-03-20T09:15:40.360Z,2.60
2018-03-20T09:18:09.545Z,2.70
2018-03-20T09:20:38.723Z,2.50
2018-03-20T09:23:07.980Z,2.40
2018-03-20T09:25:37.247Z,2.40
2018-03-20T09:28:07.317Z,2.50
2018-03-20T09:30:36.567Z,2.50
2018-03-20T09:33:06.550Z,2.70
2018-03-20T09:35:35.734Z,2.70
2018-03-20T09:38:04.936Z,2.80
2018-03-20T09:40:34.200Z,2.70
2018-03-20T09:43:03.500Z,2.80
2018-03-20T09:45:32.816Z,2.80
2018-03-20T09:48:02.054Z,2.80
2018-03-20T09:50:31.356Z,2.80
2018-03-20T09:53:00.606Z,2.90
2018-03-20T09:55:29.821Z,2.90
2018-03-20T09:57:59.826Z,3.10
2018-03-20T10:00:29.029Z,3.10
2018-03-20T10:02:58.240Z,3.30
2018-03-20T10:05:27.454Z,3.60
2018-03-20T10:07:56.841Z,4.00
2018-03-20T10:10:26.133Z,4.50
2018-03-20T10:12:55.354Z,5.00
2018-03-20T10:15:24.660Z,5.30
2018-03-20T10:17:53.896Z,5.50
2018-03-20T10:20:23.128Z,6.00
2018-03-20T10:22:53.261Z,6.60
2018-03-20T10:25:22.696Z,6.60
2018-03-20T10:27:52.687Z,7.00
2018-03-20T10:30:21.984Z,7.00
2018-03-20T10:32:51.219Z,7.00
2018-03-20T10:35:20.673Z,6.50
2018-03-20T10:37:49.931Z,5.80
2018-03-20T10:40:19.453Z,5.60
2018-03-20T10:42:49.382Z,5.80
2018-03-20T10:45:18.690Z,5.90
2018-03-20T10:47:48.012Z,5.70
2018-03-20T10:50:18.153Z,5.90
2018-03-20T10:52:47.412Z,5.90
2018-03-20T10:55:16.608Z,6.20
2018-03-20T10:57:46.631Z,6.90
2018-03-20T11:00:16.648Z,6.90
2018-03-20T11:02:52.517Z,7.00
2018-03-20T11:05:22.561Z,7.50
2018-03-20T11:07:51.881Z,7.50
2018-03-20T11:10:21.320Z,7.80
2018-03-20T11:12:50.764Z,7.70
2018-03-20T11:15:20.044Z,7.30
2018-03-20T11:17:49.588Z,7.00
2018-03-20T11:20:18.931Z,7.10
2018-03-20T11:22:48.358Z,7.30
2018-03-20T11:25:18.389Z,7.30
2018-03-20T11:27:47.663Z,7.40
2018-03-20T11:30:16.983Z,7.20
2018-03-20T11:32:46.948Z,6.90
2018-03-20T11:35:17.126Z,7.00
2018-03-20T11:37:46.391Z,7.00
2018-03-20T11:40:15.695Z,7.00
2018-03-20T11:42:44.892Z,7.10
2018-03-20T11:45:14.140Z,7.30
2018-03-20T11:47:43.387Z,6.90
2018-03-20T11:50:12.625Z,6.60
2018-03-20T11:52:42.027Z,6.60
2018-03-20T11:55:11.249Z,6.80
2018-03-20T11:57:40.511Z,7.00
2018-03-20T12:00:09.766Z,7.00
2018-03-20T12:02:38.987Z,6.70
2018-03-20T12:05:08.227Z,6.40
2018-03-20T12:07:50.007Z,6.20
2018-03-20T12:10:19.294Z,6.30
2018-03-20T12:12:49.023Z,6.30
2018-03-20T12:15:18.268Z,6.00
2018-03-20T12:17:47.553Z,5.70
2018-03-20T12:20:16.833Z,5.50
2018-03-20T12:22:46.908Z,5.20
2018-03-20T12:25:16.173Z,5.10
2018-03-20T12:27:45.413Z,4.70
2018-03-20T12:30:14.647Z,4.50
2018-03-20T12:32:43.944Z,4.30
2018-03-20T12:35:13.179Z,4.00
2018-03-20T12:37:43.291Z,4.00
2018-03-20T12:40:12.507Z,4.00
2018-03-20T12:42:41.888Z,4.00
2018-03-20T12:45:11.124Z,3.90
2018-03-20T12:47:40.399Z,3.70
2018-03-20T12:50:09.666Z,3.50
2018-03-20T12:52:39.185Z,2.90
2018-03-20T12:55:08.397Z,2.70
2018-03-20T12:57:37.703Z,2.60
2018-03-20T13:00:06.904Z,2.60
2018-03-20T13:02:36.139Z,2.60
2018-03-20T13:05:05.553Z,2.20
2018-03-20T13:07:34.825Z,2.00
2018-03-20T13:10:04.064Z,1.80
2018-03-20T13:12:33.285Z,1.80
2018-03-20T13:15:02.586Z,2.00
2018-03-20T13:17:31.820Z,2.20
2018-03-20T13:20:01.011Z,2.20
2018-03-20T13:22:30.451Z,2.30
2018-03-20T13:24:59.811Z,2.40
2018-03-20T13:27:29.053Z,2.40
2018-03-20T13:29:58.470Z,2.50
2018-03-20T13:32:27.778Z,2.60
2018-03-20T13:34:57.100Z,2.50
2018-03-20T13:37:26.409Z,2.60
2018-03-20T13:39:55.724Z,2.50
2018-03-20T13:42:25.022Z,2.50
2018-03-20T13:44:54.327Z,2.50
2018-03-20T13:47:23.673Z,2.40
2018-03-20T13:49:52.924Z,2.10
2018-03-20T13:52:22.944Z,1.80
2018-03-20T13:54:52.279Z,1.80
2018-03-20T13:57:22.325Z,1.70
2018-03-20T13:59:51.670Z,1.70
2018-03-20T14:02:20.954Z,1.70
2018-03-20T14:04:50.220Z,1.60
2018-03-20T14:07:19.600Z,1.60
2018-03-20T14:09:48.984Z,1.50
2018-03-20T14:12:18.770Z,1.60
2018-03-20T14:14:48.065Z,1.60
2018-03-20T14:17:18.156Z,1.60
2018-03-20T14:19:47.530Z,1.60
2018-03-20T14:22:17.742Z,1.50
2018-03-20T14:24:47.823Z,1.50
2018-03-20T14:27:17.090Z,1.40
2018-03-20T14:29:46.339Z,1.40
2018-03-20T14:32:16.116Z,1.40
2018-03-20T14:34:45.527Z,1.50
2018-03-20T14:37:14.739Z,1.50
2018-03-20T14:39:44.065Z,1.70
2018-03-20T14:42:13.365Z,1.70
2018-03-20T14:44:42.593Z,1.80
2018-03-20T14:47:11.894Z,1.80
2018-03-20T14:49:41.144Z,1.90
2018-03-20T14:52:11.148Z,1.60
2018-03-20T14:54:40.553Z,1.60
2018-03-20T14:57:09.748Z,1.50
2018-03-20T14:59:38.979Z,1.40
2018-03-20T15:02:08.228Z,1.40
2018-03-20T15:04:37.410Z,1.40
2018-03-20T15:07:06.666Z,1.30
2018-03-20T15:09:36.016Z,1.40
2018-03-20T15:12:05.328Z,1.40
2018-03-20T15:14:34.648Z,1.40
2018-03-20T15:17:03.909Z,1.30
2018-03-20T15:19:33.872Z,1.30
2018-03-20T15:22:03.097Z,1.30
2018-03-20T15:24:32.408Z,1.30
2018-03-20T15:27:01.620Z,1.30
2018-03-20T15:29:30.854Z,1.30
2018-03-20T15:32:03.622Z,1.30
2018-03-20T15:34:32.902Z,1.20
2018-03-20T15:37:02.207Z,1.20
2018-03-20T15:39:31.381Z,1.20
2018-03-20T15:42:00.781Z,1.20
2018-03-20T15:44:30.141Z,1.30
2018-03-20T15:46:59.313Z,1.30
2018-03-20T15:49:28.588Z,1.30
2018-03-20T15:51:57.837Z,1.30
2018-03-20T15:54:27.111Z,1.30
2018-03-20T15:56:56.422Z,1.30
2018-03-20T15:59:26.847Z,1.30
2018-03-20T16:01:56.100Z,1.30
2018-03-20T16:04:25.385Z,1.30
2018-03-20T16:06:54.583Z,1.30
2018-03-20T16:09:24.661Z,1.30
2018-03-20T16:11:53.904Z,1.30
2018-03-20T16:14:24.004Z,1.40
2018-03-20T16:16:53.224Z,1.30
2018-03-20T16:19:22.540Z,1.40
2018-03-20T16:21:51.773Z,1.40
2018-03-20T16:24:21.769Z,1.40
2018-03-20T16:26:51.183Z,1.40
2018-03-20T16:29:20.421Z,1.40
2018-03-20T16:31:50.706Z,1.30
2018-03-20T16:34:20.049Z,1.20
2018-03-20T16:36:49.340Z,1.20
2018-03-20T16:39:18.610Z,1.20
2018-03-20T16:41:47.989Z,1.20
2018-03-20T16:44:21.873Z,1.20
2018-03-20T16:46:51.217Z,1.20
2018-03-20T16:49:20.539Z,1.10
2018-03-20T16:51:49.949Z,1.10
2018-03-20T16:54:19.259Z,1.10
2018-03-20T16:56:48.533Z,1.00
2018-03-20T16:59:17.796Z,1.00
2018-03-20T17:01:48.641Z,0.90
2018-03-20T17:04:17.897Z,0.90
2018-03-20T17:06:48.089Z,0.90
2018-03-20T17:09:17.327Z,0.90
2018-03-20T17:11:46.615Z,0.80
2018-03-20T17:14:16.860Z,0.80
2018-03-20T17:17:00.067Z,0.70
2018-03-20T17:19:29.259Z,0.70
2018-03-20T17:21:58.603Z,0.70
2018-03-20T17:24:29.181Z,0.60
2018-03-20T17:26:58.436Z,0.60
2018-03-20T17:29:27.666Z,0.70
2018-03-20T17:31:56.959Z,0.70
2018-03-20T17:34:26.413Z,0.60
2018-03-20T17:36:57.763Z,0.60
2018-03-20T17:39:27.075Z,0.60
2018-03-20T17:41:56.345Z,0.60
2018-03-20T17:44:25.646Z,0.60
2018-03-20T17:46:55.022Z,0.60
2018-03-20T17:49:24.239Z,0.60
2018-03-20T17:51:53.505Z,0.60
2018-03-20T17:54:22.773Z,0.70
2018-03-20T17:56:52.982Z,0.60
2018-03-20T17:59:22.215Z,0.60
2018-03-20T18:01:51.513Z,0.70
2018-03-20T18:04:33.288Z,0.70
2018-03-20T18:07:02.586Z,0.70
2018-03-20T18:09:31.885Z,0.70
2018-03-20T18:12:01.271Z,0.70
2018-03-20T18:14:36.704Z,0.70
2018-03-20T18:17:05.942Z,0.70
2018-03-20T18:19:43.637Z,0.70
2018-03-20T18:22:12.922Z,0.70
2018-03-20T18:24:42.219Z,0.70
2018-03-20T18:27:35.241Z,0.70
2018-03-20T18:30:10.088Z,0.70
2018-03-20T18:33:02.876Z,0.80
2018-03-20T18:35:39.863Z,0.80
2018-03-20T18:38:13.551Z,0.70
2018-03-20T18:40:42.798Z,0.80
2018-03-20T18:43:12.103Z,0.80
2018-03-20T18:45:41.381Z,0.80
2018-03-20T18:48:10.600Z,0.80
2018-03-20T18:50:39.784Z,0.80
2018-03-20T18:53:09.128Z,0.80
2018-03-20T18:55:38.343Z,0.80
2018-03-20T18:58:09.605Z,0.90
2018-03-20T19:00:38.897Z,0.90
2018-03-20T19:03:08.148Z,0.90
2018-03-20T19:05:38.220Z,1.00
2018-03-20T19:08:07.440Z,0.90
2018-03-20T19:10:36.775Z,1.00
2018-03-20T19:13:06.203Z,1.00
2018-03-20T19:15:45.197Z,1.00
2018-03-20T19:18:15.374Z,1.00
2018-03-20T19:20:49.314Z,1.00
2018-03-20T19:23:18.655Z,1.10
2018-03-20T19:25:48.677Z,1.20
2018-03-20T19:28:19.904Z,1.20
2018-03-20T19:30:50.557Z,1.20
2018-03-20T19:33:19.951Z,1.20
2018-03-20T19:35:49.192Z,1.20
2018-03-20T19:38:18.594Z,1.50
2018-03-20T19:40:47.836Z,1.50
2018-03-20T19:43:17.810Z,1.50
2018-03-20T19:45:47.105Z,1.50
2018-03-20T19:48:16.371Z,1.50
2018-03-20T19:50:45.591Z,1.50
2018-03-20T19:53:14.872Z,1.50
2018-03-20T19:55:44.111Z,1.50
2018-03-20T19:58:13.593Z,1.50
2018-03-20T20:00:42.806Z,1.50
2018-03-20T20:03:15.831Z,1.50
2018-03-20T20:05:53.468Z,1.50
2018-03-20T20:08:22.712Z,1.50
2018-03-20T20:10:52.758Z,1.50
2018-03-20T20:13:26.067Z,1.50
2018-03-20T20:15:55.295Z,1.50
2018-03-20T20:18:32.227Z,1.50
2018-03-20T20:21:01.446Z,1.50
2018-03-20T20:23:45.494Z,1.50
2018-03-20T20:26:15.482Z,1.50
2018-03-20T20:28:44.674Z,1.40
2018-03-20T20:31:14.002Z,1.50
2018-03-20T20:33:43.233Z,1.50
2018-03-20T20:36:12.443Z,1.50
2018-03-20T20:38:41.645Z,1.50
2018-03-20T20:41:10.919Z,1.50
2018-03-20T20:43:40.974Z,1.50
2018-03-20T20:46:10.303Z,1.50
2018-03-20T20:48:40.423Z,1.50
2018-03-20T20:51:09.758Z,1.50
2018-03-20T20:53:39.053Z,1.50
2018-03-20T20:56:08.368Z,1.50
2018-03-20T20:58:37.608Z,1.40
2018-03-20T21:01:06.834Z,1.40
2018-03-20T21:03:36.825Z,1.20
2018-03-20T21:06:06.030Z,1.20
2018-03-20T21:08:35.233Z,1.10
2018-03-20T21:11:04.549Z,1.10
2018-03-20T21:13:33.865Z,0.90
2018-03-20T21:16:03.379Z,0.80
2018-03-20T21:18:32.727Z,0.80
2018-03-20T21:21:03.565Z,0.60
2018-03-20T21:23:32.811Z,0.60
2018-03-20T21:26:02.796Z,0.70
2018-03-20T21:28:32.039Z,0.70
2018-03-20T21:31:01.302Z,0.80
2018-03-20T21:33:30.561Z,0.90
2018-03-20T21:35:59.936Z,0.90
2018-03-20T21:38:29.175Z,0.90
2018-03-20T21:40:58.376Z,0.70
2018-03-20T21:43:27.581Z,0.60
2018-03-20T21:45:56.801Z,0.40
2018-03-20T21:48:25.999Z,0.30
2018-03-20T21:50:55.228Z,0.30
2018-03-20T21:53:24.520Z,0.40
2018-03-20T21:55:53.774Z,0.30
2018-03-20T21:58:22.994Z,0.20
2018-03-20T22:00:53.032Z,0.00
2018-03-20T22:03:23.063Z,0.00
2018-03-20T22:05:52.347Z,0.00
2018-03-20T22:08:21.728Z,-0.10
2018-03-20T22:10:51.042Z,-0.20
2018-03-20T22:13:20.274Z,-0.20
2018-03-20T22:15:49.528Z,-0.20
2018-03-20T22:18:18.884Z,-0.20
2018-03-20T22:20:48.114Z,-0.10
2018-03-20T22:23:17.398Z,0.00
2018-03-20T22:25:46.650Z,0.10
2018-03-20T22:28:15.909Z,0.20
2018-03-20T22:30:45.163Z,0.10
2018-03-20T22:33:14.434Z,0.00
2018-03-20T22:35:43.652Z,0.00
2018-03-20T22:38:12.901Z,0.00
2018-03-20T22:40:42.940Z,-0.30
2018-03-20T22:43:13.026Z,-0.40
2018-03-20T22:45:42.326Z,-0.40
2018-03-20T22:48:11.549Z,-0.40
2018-03-20T22:50:40.772Z,-0.50
2018-03-20T22:53:10.181Z,-0.50
2018-03-20T22:55:39.422Z,-0.50
2018-03-20T22:58:08.694Z,-0.50
2018-03-20T23:00:37.852Z,-0.60
2018-03-20T23:03:07.093Z,-0.60
2018-03-20T23:05:36.294Z,-0.50
2018-03-20T23:08:06.371Z,-0.50
2018-03-20T23:10:35.597Z,-0.50
2018-03-20T23:13:04.895Z,-0.40
2018-03-20T23:15:34.310Z,-0.40
2018-03-20T23:18:03.496Z,-0.40
2018-03-20T23:20:32.746Z,-0.40
2018-03-20T23:23:01.972Z,-0.40
2018-03-20T23:25:31.265Z,-0.40
2018-03-20T23:28:00.494Z,-0.50
2018-03-20T23:30:31.228Z,-0.40
2018-03-20T23:33:00.529Z,-0.40
2018-03-20T23:35:29.745Z,-0.50
2018-03-20T23:37:59.002Z,-0.50
2018-03-20T23:40:28.365Z,-0.50
2018-03-20T23:42:57.587Z,-0.60
2018-03-20T23:45:26.832Z,-0.60
2018-03-20T23:47:56.225Z,-0.60
2018-03-20T23:50:25.474Z,-0.60
2018-03-20T23:52:55.456Z,-0.50
2018-03-20T23:55:24.652Z,-0.50
2018-03-20T23:57:53.899Z,-0.50
